createdAt,value
2023-01-09T00:02:27.292Z,98908.75
2023-01-09T00:07:31.957Z,98902.72
2023-01-09T00:12:35.650Z,98897.06
2023-01-09T00:17:38.951Z,98883.78
2023-01-09T00:22:43.785Z,98882.75
2023-01-09T00:27:48.239Z,98880.63
2023-01-09T00:32:51.641Z,98869.78
2023-01-09T00:37:56.340Z,98857.50
2023-01-09T00:42:59.858Z,98858.72
2023-01-09T00:48:05.071Z,98853.25
2023-01-09T00:53:13.323Z,98848.78
2023-01-09T00:58:16.655Z,98852.88
2023-01-09T01:03:19.975Z,98842.88
2023-01-09T01:08:24.694Z,98829.19
2023-01-09T01:13:27.995Z,98836.44
2023-01-09T01:18:31.286Z,98820.22
2023-01-09T01:23:36.388Z,98824.84
2023-01-09T01:28:39.931Z,98828.38
2023-01-09T01:33:43.243Z,98826.72
2023-01-09T01:38:47.858Z,98823.75
2023-01-09T01:43:53.425Z,98822.56
2023-01-09T01:48:59.521Z,98817.81
2023-01-09T01:54:06.858Z,98819.09
2023-01-09T02:05:06.228Z,98807.53
2023-01-09T02:10:11.477Z,98800.16
2023-01-09T02:15:15.591Z,98798.34
2023-01-09T02:20:40.224Z,98791.34
2023-01-09T02:26:09.294Z,98791.34
2023-01-09T02:31:18.436Z,98792.03
2023-01-09T02:36:27.880Z,98786.38
2023-01-09T02:41:35.575Z,98791.25
2023-01-09T02:46:40.283Z,98779.09
2023-01-09T02:51:52.445Z,98777.09
2023-01-09T02:57:22.376Z,98769.94
2023-01-09T03:02:38.350Z,98772.31
2023-01-09T03:07:45.432Z,98761.88
2023-01-09T03:12:49.812Z,98752.91
2023-01-09T03:17:55.460Z,98745.31
2023-01-09T03:23:01.302Z,98742.56
2023-01-09T03:28:06.631Z,98741.31
2023-01-09T03:33:11.232Z,98736.63
2023-01-09T03:38:14.582Z,98743.88
2023-01-09T03:43:18.246Z,98734.97
2023-01-09T03:48:23.206Z,98745.69
2023-01-09T03:53:28.603Z,98730.78
2023-01-09T03:58:31.936Z,98730.03
2023-01-09T04:03:36.956Z,98737.69
2023-01-09T04:08:40.291Z,98721.91
2023-01-09T04:13:44.936Z,98727.94
2023-01-09T04:18:49.714Z,98729.72
2023-01-09T04:23:53.040Z,98734.00
2023-01-09T04:28:56.395Z,98733.31
2023-01-09T04:34:01.015Z,98738.28
2023-01-09T04:39:05.553Z,98733.69
2023-01-09T04:44:08.883Z,98736.84
2023-01-09T04:49:13.659Z,98751.81
2023-01-09T04:54:17.012Z,98751.47
2023-01-09T04:59:20.387Z,98758.09
2023-01-09T05:04:25.085Z,98753.72
2023-01-09T05:09:28.600Z,98759.06
2023-01-09T05:14:31.998Z,98766.78
2023-01-09T05:19:36.652Z,98768.78
2023-01-09T05:24:39.953Z,98769.91
2023-01-09T05:29:43.312Z,98779.91
2023-01-09T05:34:47.972Z,98785.69
2023-01-09T05:39:51.379Z,98795.00
2023-01-09T05:44:54.722Z,98793.66
2023-01-09T05:50:00.178Z,98802.97
2023-01-09T05:55:03.524Z,98821.50
2023-01-09T06:00:08.284Z,98826.47
2023-01-09T06:05:12.979Z,98820.69
2023-01-09T06:10:16.549Z,98819.81
2023-01-09T06:15:20.745Z,98826.94
2023-01-09T06:20:25.416Z,98827.16
2023-01-09T06:25:28.716Z,98843.06
2023-01-09T06:30:32.004Z,98859.28
2023-01-09T06:35:36.674Z,98869.91
2023-01-09T06:40:40.187Z,98884.19
2023-01-09T06:45:44.363Z,98884.22
2023-01-09T06:50:49.927Z,98902.09
2023-01-09T06:55:53.232Z,98897.47
2023-01-09T07:00:56.577Z,98906.09
2023-01-09T07:06:01.259Z,98925.00
2023-01-09T07:11:04.588Z,98921.69
2023-01-09T07:16:08.657Z,98932.47
2023-01-09T07:21:13.338Z,98941.91
2023-01-09T07:26:16.669Z,98938.41
2023-01-09T07:31:19.977Z,98944.84
2023-01-09T07:36:24.674Z,98955.03
2023-01-09T07:41:28.459Z,98978.00
2023-01-09T07:46:31.832Z,98973.06
2023-01-09T07:51:39.019Z,98974.97
2023-01-09T07:56:42.357Z,98968.84
2023-01-09T08:01:45.735Z,98986.06
2023-01-09T08:06:50.491Z,98998.38
2023-01-09T08:11:54.176Z,98997.16
2023-01-09T08:16:58.284Z,99003.72
2023-01-09T08:22:02.922Z,99020.00
2023-01-09T08:27:06.251Z,99026.16
2023-01-09T08:32:09.806Z,99027.38
2023-01-09T08:37:14.526Z,99027.25
2023-01-09T08:42:35.320Z,99032.16
2023-01-09T08:47:39.381Z,99024.63
2023-01-09T08:52:44.020Z,99035.00
2023-01-09T08:57:50.589Z,99047.53
2023-01-09T09:02:54.536Z,99044.97
2023-01-09T09:08:00.149Z,99039.94
2023-01-09T09:13:03.735Z,99034.69
2023-01-09T09:18:09.128Z,99032.22
2023-01-09T09:23:13.779Z,99045.88
2023-01-09T09:28:17.115Z,99038.72
2023-01-09T09:33:20.511Z,99055.53
2023-01-09T09:38:25.259Z,99064.56
2023-01-09T09:44:02.055Z,99046.09
2023-01-09T09:49:09.811Z,99053.78
2023-01-09T09:54:18.393Z,99046.69
2023-01-09T09:59:26.670Z,99068.72
2023-01-09T10:04:33.087Z,99063.00
2023-01-09T10:09:45.790Z,99074.91
2023-01-09T10:14:49.320Z,99079.78
2023-01-09T10:20:08.031Z,99080.25
2023-01-09T10:25:23.885Z,99071.50
2023-01-09T10:30:34.246Z,99065.78
2023-01-09T10:35:50.370Z,99060.56
2023-01-09T10:41:01.439Z,99056.72
2023-01-09T10:46:08.460Z,99039.19
2023-01-09T10:51:17.812Z,99043.28
2023-01-09T10:56:24.760Z,99040.09
2023-01-09T11:01:30.134Z,99036.34
2023-01-09T11:06:40.789Z,99043.50
2023-01-09T11:11:45.897Z,99048.16
2023-01-09T11:16:53.735Z,99050.75
2023-01-09T11:22:07.622Z,99050.97
2023-01-09T11:27:23.545Z,99049.81
2023-01-09T11:32:27.118Z,99047.50
2023-01-09T11:37:31.585Z,99055.09
2023-01-09T11:42:54.576Z,99059.69
2023-01-09T11:47:58.091Z,99047.44
2023-01-09T11:53:16.101Z,99057.66
2023-01-09T11:58:22.094Z,99054.16
2023-01-09T12:03:38.267Z,99059.97
2023-01-09T12:08:47.586Z,99057.88
2023-01-09T12:14:14.427Z,99054.25
2023-01-09T12:19:37.754Z,99050.28
2023-01-09T12:25:05.702Z,99046.72
2023-01-09T12:30:22.588Z,99049.31
2023-01-09T12:35:33.717Z,99053.91
2023-01-09T12:41:08.114Z,99056.69
2023-01-09T12:46:16.752Z,99045.44
2023-01-09T12:51:29.792Z,99045.66
2023-01-09T12:56:35.712Z,99043.97
2023-01-09T13:01:43.521Z,99049.97
2023-01-09T13:06:51.079Z,99059.28
2023-01-09T13:12:01.918Z,99069.91
2023-01-09T13:17:09.363Z,99072.88
2023-01-09T13:22:14.629Z,99068.97
2023-01-09T13:27:19.877Z,99072.72
2023-01-09T13:32:33.167Z,99067.00
2023-01-09T13:37:37.728Z,99058.00
2023-01-09T13:42:46.161Z,99065.09
2023-01-09T13:48:19.153Z,99061.38
2023-01-09T13:53:44.201Z,99064.53
2023-01-09T13:59:08.303Z,99057.09
2023-01-09T14:04:41.216Z,99071.44
2023-01-09T14:09:48.812Z,99072.78
2023-01-09T14:14:53.770Z,99079.38
2023-01-09T14:19:59.805Z,99090.66
2023-01-09T14:25:07.487Z,99102.94
2023-01-09T14:30:34.115Z,99121.88
2023-01-09T14:35:46.660Z,99127.88
2023-01-09T14:40:53.235Z,99140.47
2023-01-09T14:46:00.492Z,99146.81
2023-01-09T14:51:08.541Z,99149.44
2023-01-09T14:56:26.505Z,99164.81
2023-01-09T15:01:32.541Z,99179.69
2023-01-09T15:06:38.836Z,99195.63
2023-01-09T15:11:42.218Z,99196.47
2023-01-09T15:16:46.053Z,99191.78
2023-01-09T15:22:00.225Z,99196.56
2023-01-09T15:27:10.755Z,99202.34
2023-01-09T15:32:18.151Z,99209.44
2023-01-09T15:37:28.192Z,99216.44
2023-01-09T15:42:51.511Z,99218.44
2023-01-09T15:47:55.183Z,99234.84
2023-01-09T15:52:59.942Z,99231.31
2023-01-09T15:58:03.768Z,99265.84
2023-01-09T16:03:20.135Z,99279.91
2023-01-09T16:08:30.375Z,99292.44
2023-01-09T16:13:39.933Z,99298.56
2023-01-09T16:18:51.242Z,99309.47
2023-01-09T16:23:57.505Z,99323.56
2023-01-09T16:29:34.254Z,99325.84
2023-01-09T16:34:37.844Z,99328.63
2023-01-09T16:39:42.727Z,99333.94
2023-01-09T16:44:46.089Z,99334.09
2023-01-09T16:49:49.467Z,99335.38
2023-01-09T16:54:54.114Z,99353.28
2023-01-09T17:00:00.119Z,99354.84
2023-01-09T17:05:03.475Z,99364.09
2023-01-09T17:10:18.776Z,99369.25
2023-01-09T17:15:22.124Z,99385.78
2023-01-09T17:20:25.577Z,99397.63
2023-01-09T17:25:47.613Z,99416.22
2023-01-09T17:30:50.943Z,99432.47
2023-01-09T17:35:54.405Z,99441.81
2023-01-09T17:40:59.034Z,99447.66
2023-01-09T17:46:02.346Z,99451.59
2023-01-09T17:51:05.806Z,99480.22
2023-01-09T17:56:16.117Z,99477.41
2023-01-09T18:01:20.500Z,99485.91
2023-01-09T18:06:24.873Z,99494.25
2023-01-09T18:11:29.577Z,99501.69
2023-01-09T18:16:32.908Z,99503.59
2023-01-09T18:21:36.396Z,99512.81
2023-01-09T18:26:41.179Z,99511.00
2023-01-09T18:31:44.656Z,99529.00
2023-01-09T18:36:48.399Z,99542.84
2023-01-09T18:41:53.056Z,99552.72
2023-01-09T18:46:56.421Z,99564.47
2023-01-09T18:51:59.837Z,99566.38
2023-01-09T18:57:04.711Z,99584.75
2023-01-09T19:02:10.331Z,99584.16
2023-01-09T19:07:13.650Z,99595.44
2023-01-09T19:12:18.350Z,99605.06
2023-01-09T19:17:21.733Z,99613.91
2023-01-09T19:22:26.715Z,99615.94
2023-01-09T19:27:31.499Z,99626.59
2023-01-09T19:32:35.055Z,99637.78
2023-01-09T19:37:38.474Z,99632.22
2023-01-09T19:42:43.175Z,99641.00
2023-01-09T19:47:47.391Z,99643.13
2023-01-09T19:52:51.531Z,99671.25
2023-01-09T19:57:56.176Z,99671.28
2023-01-09T20:02:59.527Z,99684.91
2023-01-09T20:08:06.286Z,99701.81
2023-01-09T20:13:10.894Z,99711.47
2023-01-09T20:18:14.213Z,99701.91
2023-01-09T20:23:19.370Z,99731.53
2023-01-09T20:28:24.042Z,99727.63
2023-01-09T20:33:27.620Z,99754.25
2023-01-09T20:38:30.963Z,99750.91
2023-01-09T20:43:35.963Z,99778.97
2023-01-09T20:48:39.256Z,99775.47
2023-01-09T20:53:45.042Z,99796.25
2023-01-09T20:58:50.097Z,99805.41
2023-01-09T21:03:54.403Z,99811.63
2023-01-09T21:08:57.770Z,99814.56
2023-01-09T21:14:02.370Z,99824.19
2023-01-09T21:19:05.685Z,99840.22
2023-01-09T21:24:09.348Z,99840.34
2023-01-09T21:29:21.975Z,99851.28
2023-01-09T21:34:26.242Z,99859.34
2023-01-09T21:39:29.564Z,99870.41
2023-01-09T21:44:51.523Z,99872.63
2023-01-09T21:49:54.852Z,99883.38
2023-01-09T21:54:58.530Z,99896.47
2023-01-09T22:00:03.264Z,99906.53
2023-01-09T22:05:15.083Z,99911.50
2023-01-09T22:10:18.614Z,99926.97
2023-01-09T22:15:23.317Z,99930.34
2023-01-09T22:20:26.653Z,99938.03
2023-01-09T22:25:30.059Z,99950.13
2023-01-09T22:30:34.805Z,99965.81
2023-01-09T22:35:38.435Z,99972.00
2023-01-09T22:40:42.170Z,99989.72
2023-01-09T22:45:46.872Z,99990.94
2023-01-09T22:50:50.215Z,100001.28
2023-01-09T22:55:56.540Z,100012.19
2023-01-09T23:01:01.371Z,100006.78
2023-01-09T23:06:06.425Z,100013.09
2023-01-09T23:11:11.356Z,100022.16
2023-01-09T23:16:16.038Z,100030.69
2023-01-09T23:21:19.453Z,100032.09
2023-01-09T23:26:22.899Z,100042.03
2023-01-09T23:31:27.812Z,100054.22
2023-01-09T23:36:31.701Z,100056.66
2023-01-09T23:41:52.817Z,100067.75
2023-01-09T23:46:57.493Z,100079.09
2023-01-09T23:52:02.313Z,100088.13
2023-01-09T23:57:05.774Z,100087.19
